sensor_id;sensor_type;location;lat;lon;timestamp;temperature;humidity
76293;DHT22;67256;51.154;4.164;2023-08-01T00:00:32;19.20;80.10
76293;DHT22;67256;51.154;4.164;2023-08-01T00:02:59;19.20;79.80
76293;DHT22;67256;51.154;4.164;2023-08-01T00:05:24;19.20;80.20
76293;DHT22;67256;51.154;4.164;2023-08-01T00:07:51;19.20;79.90
76293;DHT22;67256;51.154;4.164;2023-08-01T00:10:17;19.20;79.80
76293;DHT22;67256;51.154;4.164;2023-08-01T00:12:42;19.30;79.60
76293;DHT22;67256;51.154;4.164;2023-08-01T00:15:09;19.20;79.30
76293;DHT22;67256;51.154;4.164;2023-08-01T00:17:35;19.10;79.70
76293;DHT22;67256;51.154;4.164;2023-08-01T00:20:04;19.10;79.80
76293;DHT22;67256;51.154;4.164;2023-08-01T00:22:30;19.10;79.70
76293;DHT22;67256;51.154;4.164;2023-08-01T00:24:55;19.10;79.20
76293;DHT22;67256;51.154;4.164;2023-08-01T00:27:21;19.10;79.60
76293;DHT22;67256;51.154;4.164;2023-08-01T00:29:47;18.80;80.40
76293;DHT22;67256;51.154;4.164;2023-08-01T00:32:13;18.90;80.40
76293;DHT22;67256;51.154;4.164;2023-08-01T00:34:38;18.90;80.30
76293;DHT22;67256;51.154;4.164;2023-08-01T00:37:05;19.00;80.10
76293;DHT22;67256;51.154;4.164;2023-08-01T00:39:30;19.00;80.40
76293;DHT22;67256;51.154;4.164;2023-08-01T00:41:56;19.00;79.80
76293;DHT22;67256;51.154;4.164;2023-08-01T00:44:22;19.10;79.90
76293;DHT22;67256;51.154;4.164;2023-08-01T00:46:48;19.10;79.50
76293;DHT22;67256;51.154;4.164;2023-08-01T00:49:14;19.10;79.50
76293;DHT22;67256;51.154;4.164;2023-08-01T00:51:40;19.20;79.40
76293;DHT22;67256;51.154;4.164;2023-08-01T00:54:06;19.10;79.60
76293;DHT22;67256;51.154;4.164;2023-08-01T00:56:32;19.00;79.80
76293;DHT22;67256;51.154;4.164;2023-08-01T00:58:58;19.10;79.90
76293;DHT22;67256;51.154;4.164;2023-08-01T01:01:24;19.10;79.50
76293;DHT22;67256;51.154;4.164;2023-08-01T01:03:50;19.00;79.70
76293;DHT22;67256;51.154;4.164;2023-08-01T01:06:40;19.10;80.00
76293;DHT22;67256;51.154;4.164;2023-08-01T01:09:32;19.10;79.40
76293;DHT22;67256;51.154;4.164;2023-08-01T01:11:59;19.10;79.80
76293;DHT22;67256;51.154;4.164;2023-08-01T01:14:28;19.10;79.70
76293;DHT22;67256;51.154;4.164;2023-08-01T01:16:54;19.10;80.10
76293;DHT22;67256;51.154;4.164;2023-08-01T01:19:20;19.00;79.80
76293;DHT22;67256;51.154;4.164;2023-08-01T01:21:47;19.10;79.60
76293;DHT22;67256;51.154;4.164;2023-08-01T01:24:14;19.00;79.60
76293;DHT22;67256;51.154;4.164;2023-08-01T01:26:41;19.10;79.60
76293;DHT22;67256;51.154;4.164;2023-08-01T01:29:09;19.10;79.20
76293;DHT22;67256;51.154;4.164;2023-08-01T01:31:36;19.10;79.50
76293;DHT22;67256;51.154;4.164;2023-08-01T01:34:03;19.10;79.40
76293;DHT22;67256;51.154;4.164;2023-08-01T01:36:29;19.10;79.20
76293;DHT22;67256;51.154;4.164;2023-08-01T01:38:55;18.90;79.30
76293;DHT22;67256;51.154;4.164;2023-08-01T01:41:21;18.80;80.40
76293;DHT22;67256;51.154;4.164;2023-08-01T01:43:47;18.70;80.60
76293;DHT22;67256;51.154;4.164;2023-08-01T01:46:14;18.80;80.70
76293;DHT22;67256;51.154;4.164;2023-08-01T01:48:39;18.70;80.50
76293;DHT22;67256;51.154;4.164;2023-08-01T01:51:07;18.70;80.90
76293;DHT22;67256;51.154;4.164;2023-08-01T01:53:33;18.70;80.40
76293;DHT22;67256;51.154;4.164;2023-08-01T01:55:58;18.80;80.40
76293;DHT22;67256;51.154;4.164;2023-08-01T01:58:24;18.80;80.40
76293;DHT22;67256;51.154;4.164;2023-08-01T02:00:50;18.80;80.30
76293;DHT22;67256;51.154;4.164;2023-08-01T02:03:15;18.80;80.00
76293;DHT22;67256;51.154;4.164;2023-08-01T02:05:41;18.80;80.10
76293;DHT22;67256;51.154;4.164;2023-08-01T02:08:07;18.70;80.80
76293;DHT22;67256;51.154;4.164;2023-08-01T02:10:32;18.60;80.10
76293;DHT22;67256;51.154;4.164;2023-08-01T02:12:58;18.50;81.10
76293;DHT22;67256;51.154;4.164;2023-08-01T02:15:24;18.50;81.30
76293;DHT22;67256;51.154;4.164;2023-08-01T02:17:50;18.60;81.00
76293;DHT22;67256;51.154;4.164;2023-08-01T02:20:15;18.60;81.30
76293;DHT22;67256;51.154;4.164;2023-08-01T02:22:41;18.60;81.10
76293;DHT22;67256;51.154;4.164;2023-08-01T02:25:07;18.70;80.70
76293;DHT22;67256;51.154;4.164;2023-08-01T02:27:34;18.80;80.20
76293;DHT22;67256;51.154;4.164;2023-08-01T02:29:59;18.80;80.20
76293;DHT22;67256;51.154;4.164;2023-08-01T02:32:25;18.70;80.30
76293;DHT22;67256;51.154;4.164;2023-08-01T02:34:51;18.80;80.60
76293;DHT22;67256;51.154;4.164;2023-08-01T02:37:16;18.80;80.50
76293;DHT22;67256;51.154;4.164;2023-08-01T02:39:42;18.80;80.10
76293;DHT22;67256;51.154;4.164;2023-08-01T02:42:08;18.80;80.00
76293;DHT22;67256;51.154;4.164;2023-08-01T02:44:34;18.80;80.20
76293;DHT22;67256;51.154;4.164;2023-08-01T02:46:59;18.80;80.30
76293;DHT22;67256;51.154;4.164;2023-08-01T02:49:25;18.80;80.10
76293;DHT22;67256;51.154;4.164;2023-08-01T02:51:51;18.80;80.00
76293;DHT22;67256;51.154;4.164;2023-08-01T02:54:16;18.80;80.30
76293;DHT22;67256;51.154;4.164;2023-08-01T02:56:42;18.80;80.50
76293;DHT22;67256;51.154;4.164;2023-08-01T02:59:08;18.70;80.90
76293;DHT22;67256;51.154;4.164;2023-08-01T03:01:37;18.70;81.20
76293;DHT22;67256;51.154;4.164;2023-08-01T03:04:03;18.70;81.00
76293;DHT22;67256;51.154;4.164;2023-08-01T03:06:30;18.80;80.80
76293;DHT22;67256;51.154;4.164;2023-08-01T03:08:56;18.80;80.70
76293;DHT22;67256;51.154;4.164;2023-08-01T03:11:22;18.80;80.60
76293;DHT22;67256;51.154;4.164;2023-08-01T03:13:48;18.90;80.50
76293;DHT22;67256;51.154;4.164;2023-08-01T03:16:13;18.80;80.10
76293;DHT22;67256;51.154;4.164;2023-08-01T03:18:39;18.80;80.60
76293;DHT22;67256;51.154;4.164;2023-08-01T03:21:04;18.70;81.00
76293;DHT22;67256;51.154;4.164;2023-08-01T03:23:30;18.70;81.10
76293;DHT22;67256;51.154;4.164;2023-08-01T03:25:56;18.70;80.80
76293;DHT22;67256;51.154;4.164;2023-08-01T03:28:21;18.80;80.70
76293;DHT22;67256;51.154;4.164;2023-08-01T03:30:47;18.80;80.50
76293;DHT22;67256;51.154;4.164;2023-08-01T03:33:16;18.70;80.60
76293;DHT22;67256;51.154;4.164;2023-08-01T03:35:41;18.70;80.70
76293;DHT22;67256;51.154;4.164;2023-08-01T03:38:07;18.70;80.90
76293;DHT22;67256;51.154;4.164;2023-08-01T03:40:33;18.60;81.20
76293;DHT22;67256;51.154;4.164;2023-08-01T03:42:59;18.60;81.40
76293;DHT22;67256;51.154;4.164;2023-08-01T03:45:25;18.60;81.60
76293;DHT22;67256;51.154;4.164;2023-08-01T03:47:50;18.50;81.70
76293;DHT22;67256;51.154;4.164;2023-08-01T03:50:16;18.50;81.60
76293;DHT22;67256;51.154;4.164;2023-08-01T03:52:42;18.60;81.50
76293;DHT22;67256;51.154;4.164;2023-08-01T03:55:08;18.70;81.30
76293;DHT22;67256;51.154;4.164;2023-08-01T03:57:34;18.70;81.20
76293;DHT22;67256;51.154;4.164;2023-08-01T04:00:00;18.70;81.00
76293;DHT22;67256;51.154;4.164;2023-08-01T04:02:26;18.60;80.90
76293;DHT22;67256;51.154;4.164;2023-08-01T04:04:51;18.60;81.30
76293;DHT22;67256;51.154;4.164;2023-08-01T04:07:18;18.60;81.20
76293;DHT22;67256;51.154;4.164;2023-08-01T04:09:44;18.70;81.00
76293;DHT22;67256;51.154;4.164;2023-08-01T04:12:10;18.70;80.90
76293;DHT22;67256;51.154;4.164;2023-08-01T04:14:35;18.60;80.90
76293;DHT22;67256;51.154;4.164;2023-08-01T04:17:01;18.70;80.80
76293;DHT22;67256;51.154;4.164;2023-08-01T04:19:27;18.70;80.50
76293;DHT22;67256;51.154;4.164;2023-08-01T04:21:52;18.70;80.40
76293;DHT22;67256;51.154;4.164;2023-08-01T04:24:18;18.70;80.30
76293;DHT22;67256;51.154;4.164;2023-08-01T04:26:44;18.70;80.30
76293;DHT22;67256;51.154;4.164;2023-08-01T04:29:10;18.60;80.30
76293;DHT22;67256;51.154;4.164;2023-08-01T04:31:35;18.60;80.40
76293;DHT22;67256;51.154;4.164;2023-08-01T04:34:01;18.60;80.20
76293;DHT22;67256;51.154;4.164;2023-08-01T04:36:27;18.60;80.40
76293;DHT22;67256;51.154;4.164;2023-08-01T04:38:52;18.60;80.40
76293;DHT22;67256;51.154;4.164;2023-08-01T04:41:18;18.70;80.30
76293;DHT22;67256;51.154;4.164;2023-08-01T04:43:44;18.70;80.00
76293;DHT22;67256;51.154;4.164;2023-08-01T04:46:09;18.70;80.20
76293;DHT22;67256;51.154;4.164;2023-08-01T04:48:35;18.70;80.10
76293;DHT22;67256;51.154;4.164;2023-08-01T04:51:00;18.70;80.10
76293;DHT22;67256;51.154;4.164;2023-08-01T04:53:26;18.70;80.20
76293;DHT22;67256;51.154;4.164;2023-08-01T04:55:52;18.70;80.60
76293;DHT22;67256;51.154;4.164;2023-08-01T04:58:17;18.60;80.60
76293;DHT22;67256;51.154;4.164;2023-08-01T05:00:43;18.70;80.70
76293;DHT22;67256;51.154;4.164;2023-08-01T05:03:09;18.70;80.80
76293;DHT22;67256;51.154;4.164;2023-08-01T05:05:35;18.70;80.40
76293;DHT22;67256;51.154;4.164;2023-08-01T05:08:01;18.80;80.20
76293;DHT22;67256;51.154;4.164;2023-08-01T05:10:26;18.80;79.70
76293;DHT22;67256;51.154;4.164;2023-08-01T05:12:52;18.80;80.00
76293;DHT22;67256;51.154;4.164;2023-08-01T05:15:17;18.80;80.00
76293;DHT22;67256;51.154;4.164;2023-08-01T05:17:43;18.80;80.40
76293;DHT22;67256;51.154;4.164;2023-08-01T05:20:09;18.80;80.10
76293;DHT22;67256;51.154;4.164;2023-08-01T05:22:35;18.80;80.30
76293;DHT22;67256;51.154;4.164;2023-08-01T05:25:00;18.90;80.30
76293;DHT22;67256;51.154;4.164;2023-08-01T05:27:27;18.80;80.30
76293;DHT22;67256;51.154;4.164;2023-08-01T05:29:53;18.90;80.10
76293;DHT22;67256;51.154;4.164;2023-08-01T05:32:18;19.00;80.00
76293;DHT22;67256;51.154;4.164;2023-08-01T05:34:44;19.00;79.80
76293;DHT22;67256;51.154;4.164;2023-08-01T05:37:10;19.20;79.50
76293;DHT22;67256;51.154;4.164;2023-08-01T05:39:35;19.20;78.90
76293;DHT22;67256;51.154;4.164;2023-08-01T05:42:01;19.20;78.40
76293;DHT22;67256;51.154;4.164;2023-08-01T05:44:27;19.10;78.60
76293;DHT22;67256;51.154;4.164;2023-08-01T05:46:53;19.10;78.80
76293;DHT22;67256;51.154;4.164;2023-08-01T05:49:19;18.90;79.00
76293;DHT22;67256;51.154;4.164;2023-08-01T05:51:46;18.90;79.60
76293;DHT22;67256;51.154;4.164;2023-08-01T05:54:11;18.90;79.80
76293;DHT22;67256;51.154;4.164;2023-08-01T05:56:37;18.90;79.70
76293;DHT22;67256;51.154;4.164;2023-08-01T05:59:03;18.90;79.50
76293;DHT22;67256;51.154;4.164;2023-08-01T06:01:29;19.00;79.20
76293;DHT22;67256;51.154;4.164;2023-08-01T06:03:54;19.10;78.70
76293;DHT22;67256;51.154;4.164;2023-08-01T06:06:20;19.20;78.60
76293;DHT22;67256;51.154;4.164;2023-08-01T06:08:46;19.20;78.50
76293;DHT22;67256;51.154;4.164;2023-08-01T06:11:11;19.30;78.10
76293;DHT22;67256;51.154;4.164;2023-08-01T06:13:37;19.30;78.00
76293;DHT22;67256;51.154;4.164;2023-08-01T06:16:03;19.40;77.80
76293;DHT22;67256;51.154;4.164;2023-08-01T06:18:28;19.40;77.50
76293;DHT22;67256;51.154;4.164;2023-08-01T06:20:54;19.30;78.20
76293;DHT22;67256;51.154;4.164;2023-08-01T06:23:20;19.40;77.90
76293;DHT22;67256;51.154;4.164;2023-08-01T06:25:46;19.30;77.80
76293;DHT22;67256;51.154;4.164;2023-08-01T06:28:12;19.30;77.70
76293;DHT22;67256;51.154;4.164;2023-08-01T06:30:38;19.40;77.50
76293;DHT22;67256;51.154;4.164;2023-08-01T06:33:03;19.50;77.00
76293;DHT22;67256;51.154;4.164;2023-08-01T06:35:29;19.50;76.70
76293;DHT22;67256;51.154;4.164;2023-08-01T06:37:54;19.60;76.70
76293;DHT22;67256;51.154;4.164;2023-08-01T06:40:20;19.50;76.70
76293;DHT22;67256;51.154;4.164;2023-08-01T06:42:46;19.40;77.10
76293;DHT22;67256;51.154;4.164;2023-08-01T06:45:12;19.40;77.70
76293;DHT22;67256;51.154;4.164;2023-08-01T06:47:37;19.40;77.20
76293;DHT22;67256;51.154;4.164;2023-08-01T06:50:03;19.40;76.20
76293;DHT22;67256;51.154;4.164;2023-08-01T06:52:30;19.30;77.30
76293;DHT22;67256;51.154;4.164;2023-08-01T06:54:56;19.40;77.30
76293;DHT22;67256;51.154;4.164;2023-08-01T06:57:21;19.50;77.20
76293;DHT22;67256;51.154;4.164;2023-08-01T06:59:47;19.60;76.50
76293;DHT22;67256;51.154;4.164;2023-08-01T07:02:13;19.60;76.20
76293;DHT22;67256;51.154;4.164;2023-08-01T07:04:38;19.50;76.50
76293;DHT22;67256;51.154;4.164;2023-08-01T07:07:05;19.50;76.50
76293;DHT22;67256;51.154;4.164;2023-08-01T07:09:31;19.50;76.80
76293;DHT22;67256;51.154;4.164;2023-08-01T07:11:56;19.40;76.30
76293;DHT22;67256;51.154;4.164;2023-08-01T07:14:22;19.50;76.20
76293;DHT22;67256;51.154;4.164;2023-08-01T07:16:48;19.60;76.30
76293;DHT22;67256;51.154;4.164;2023-08-01T07:19:13;19.70;75.40
76293;DHT22;67256;51.154;4.164;2023-08-01T07:21:39;19.70;75.80
76293;DHT22;67256;51.154;4.164;2023-08-01T07:24:05;19.70;75.40
76293;DHT22;67256;51.154;4.164;2023-08-01T07:26:31;19.70;75.10
76293;DHT22;67256;51.154;4.164;2023-08-01T07:28:57;19.80;74.60
76293;DHT22;67256;51.154;4.164;2023-08-01T07:31:23;19.80;74.40
76293;DHT22;67256;51.154;4.164;2023-08-01T07:33:48;19.90;74.60
76293;DHT22;67256;51.154;4.164;2023-08-01T07:36:14;19.80;74.20
76293;DHT22;67256;51.154;4.164;2023-08-01T07:38:39;19.90;74.40
76293;DHT22;67256;51.154;4.164;2023-08-01T07:41:06;20.00;74.40
76293;DHT22;67256;51.154;4.164;2023-08-01T07:43:32;19.90;73.40
76293;DHT22;67256;51.154;4.164;2023-08-01T07:45:59;19.90;74.30
76293;DHT22;67256;51.154;4.164;2023-08-01T07:48:25;20.00;74.50
76293;DHT22;67256;51.154;4.164;2023-08-01T07:50:51;19.90;74.90
76293;DHT22;67256;51.154;4.164;2023-08-01T07:53:17;19.90;74.30
76293;DHT22;67256;51.154;4.164;2023-08-01T07:55:43;19.90;74.30
76293;DHT22;67256;51.154;4.164;2023-08-01T07:58:08;20.00;73.20
76293;DHT22;67256;51.154;4.164;2023-08-01T08:00:35;20.00;73.90
76293;DHT22;67256;51.154;4.164;2023-08-01T08:03:01;19.90;73.70
76293;DHT22;67256;51.154;4.164;2023-08-01T08:05:26;20.00;73.50
76293;DHT22;67256;51.154;4.164;2023-08-01T08:07:52;20.10;73.30
76293;DHT22;67256;51.154;4.164;2023-08-01T08:10:18;20.30;73.10
76293;DHT22;67256;51.154;4.164;2023-08-01T08:12:44;20.50;72.60
76293;DHT22;67256;51.154;4.164;2023-08-01T08:15:09;20.40;71.70
76293;DHT22;67256;51.154;4.164;2023-08-01T08:17:35;20.40;72.10
76293;DHT22;67256;51.154;4.164;2023-08-01T08:20:02;20.30;72.00
76293;DHT22;67256;51.154;4.164;2023-08-01T08:22:28;20.20;72.30
76293;DHT22;67256;51.154;4.164;2023-08-01T08:24:54;20.10;71.90
76293;DHT22;67256;51.154;4.164;2023-08-01T08:27:20;20.30;71.70
76293;DHT22;67256;51.154;4.164;2023-08-01T08:29:46;20.20;72.40
76293;DHT22;67256;51.154;4.164;2023-08-01T08:32:12;20.40;71.70
76293;DHT22;67256;51.154;4.164;2023-08-01T08:34:37;20.40;70.50
76293;DHT22;67256;51.154;4.164;2023-08-01T08:37:05;20.00;71.20
76293;DHT22;67256;51.154;4.164;2023-08-01T08:39:30;19.80;72.20
76293;DHT22;67256;51.154;4.164;2023-08-01T08:41:57;20.00;72.70
76293;DHT22;67256;51.154;4.164;2023-08-01T08:44:22;20.10;71.30
76293;DHT22;67256;51.154;4.164;2023-08-01T08:46:54;20.30;70.10
76293;DHT22;67256;51.154;4.164;2023-08-01T08:49:21;20.30;68.70
76293;DHT22;67256;51.154;4.164;2023-08-01T08:51:48;20.50;69.30
76293;DHT22;67256;51.154;4.164;2023-08-01T08:54:15;20.60;67.10
76293;DHT22;67256;51.154;4.164;2023-08-01T08:56:41;20.70;67.20
76293;DHT22;67256;51.154;4.164;2023-08-01T08:59:08;20.80;69.20
76293;DHT22;67256;51.154;4.164;2023-08-01T09:01:39;20.90;69.60
76293;DHT22;67256;51.154;4.164;2023-08-01T09:04:05;20.60;71.20
76293;DHT22;67256;51.154;4.164;2023-08-01T09:06:40;20.40;73.60
76293;DHT22;67256;51.154;4.164;2023-08-01T09:09:14;20.30;72.30
76293;DHT22;67256;51.154;4.164;2023-08-01T09:11:51;20.10;74.50
76293;DHT22;67256;51.154;4.164;2023-08-01T09:14:19;19.90;76.10
76293;DHT22;67256;51.154;4.164;2023-08-01T09:16:45;19.50;77.30
76293;DHT22;67256;51.154;4.164;2023-08-01T09:19:23;19.50;76.80
76293;DHT22;67256;51.154;4.164;2023-08-01T09:21:50;19.50;77.80
76293;DHT22;67256;51.154;4.164;2023-08-01T09:24:17;19.50;76.50
76293;DHT22;67256;51.154;4.164;2023-08-01T09:26:46;19.50;75.90
76293;DHT22;67256;51.154;4.164;2023-08-01T09:29:12;19.60;78.00
76293;DHT22;67256;51.154;4.164;2023-08-01T09:31:40;19.70;78.90
76293;DHT22;67256;51.154;4.164;2023-08-01T09:34:17;19.90;78.60
76293;DHT22;67256;51.154;4.164;2023-08-01T09:36:43;20.00;75.50
76293;DHT22;67256;51.154;4.164;2023-08-01T09:39:09;20.20;76.10
76293;DHT22;67256;51.154;4.164;2023-08-01T09:41:40;20.40;75.10
76293;DHT22;67256;51.154;4.164;2023-08-01T09:44:06;20.60;73.10
76293;DHT22;67256;51.154;4.164;2023-08-01T09:46:36;20.70;72.10
76293;DHT22;67256;51.154;4.164;2023-08-01T09:49:11;20.60;71.50
76293;DHT22;67256;51.154;4.164;2023-08-01T09:51:47;20.70;71.90
76293;DHT22;67256;51.154;4.164;2023-08-01T09:54:14;20.70;72.50
76293;DHT22;67256;51.154;4.164;2023-08-01T09:56:42;20.80;70.20
76293;DHT22;67256;51.154;4.164;2023-08-01T09:59:10;21.00;69.30
76293;DHT22;67256;51.154;4.164;2023-08-01T10:01:36;21.10;66.00
76293;DHT22;67256;51.154;4.164;2023-08-01T10:04:04;21.10;66.90
76293;DHT22;67256;51.154;4.164;2023-08-01T10:06:34;21.20;66.00
76293;DHT22;67256;51.154;4.164;2023-08-01T10:09:02;21.20;65.90
76293;DHT22;67256;51.154;4.164;2023-08-01T10:11:29;21.10;65.00
76293;DHT22;67256;51.154;4.164;2023-08-01T10:13:56;21.10;65.50
76293;DHT22;67256;51.154;4.164;2023-08-01T10:16:21;21.10;65.50
76293;DHT22;67256;51.154;4.164;2023-08-01T10:18:49;21.00;66.40
76293;DHT22;67256;51.154;4.164;2023-08-01T10:21:17;20.90;66.30
76293;DHT22;67256;51.154;4.164;2023-08-01T10:23:44;20.80;66.20
76293;DHT22;67256;51.154;4.164;2023-08-01T10:26:11;20.90;66.80
76293;DHT22;67256;51.154;4.164;2023-08-01T10:28:48;21.00;65.30
76293;DHT22;67256;51.154;4.164;2023-08-01T10:31:16;21.10;65.80
76293;DHT22;67256;51.154;4.164;2023-08-01T10:33:43;21.30;64.90
76293;DHT22;67256;51.154;4.164;2023-08-01T10:36:13;21.20;67.00
76293;DHT22;67256;51.154;4.164;2023-08-01T10:38:56;21.20;65.10
76293;DHT22;67256;51.154;4.164;2023-08-01T10:41:29;21.20;64.60
76293;DHT22;67256;51.154;4.164;2023-08-01T10:44:12;21.20;64.30
76293;DHT22;67256;51.154;4.164;2023-08-01T10:49:20;21.10;63.70
76293;DHT22;67256;51.154;4.164;2023-08-01T10:51:47;21.20;62.90
76293;DHT22;67256;51.154;4.164;2023-08-01T10:54:23;21.30;61.80
76293;DHT22;67256;51.154;4.164;2023-08-01T10:56:54;21.30;60.90
76293;DHT22;67256;51.154;4.164;2023-08-01T10:59:21;21.30;61.00
76293;DHT22;67256;51.154;4.164;2023-08-01T11:01:50;21.40;62.10
76293;DHT22;67256;51.154;4.164;2023-08-01T11:04:21;21.50;62.00
76293;DHT22;67256;51.154;4.164;2023-08-01T11:06:49;21.60;60.80
76293;DHT22;67256;51.154;4.164;2023-08-01T11:09:19;21.70;59.60
76293;DHT22;67256;51.154;4.164;2023-08-01T11:11:49;21.60;58.00
76293;DHT22;67256;51.154;4.164;2023-08-01T11:14:15;21.70;59.60
76293;DHT22;67256;51.154;4.164;2023-08-01T11:16:43;21.90;59.00
76293;DHT22;67256;51.154;4.164;2023-08-01T11:19:25;21.90;58.60
76293;DHT22;67256;51.154;4.164;2023-08-01T11:21:52;21.90;59.40
76293;DHT22;67256;51.154;4.164;2023-08-01T11:24:19;22.00;59.20
76293;DHT22;67256;51.154;4.164;2023-08-01T11:26:47;22.20;59.00
76293;DHT22;67256;51.154;4.164;2023-08-01T11:29:14;22.10;60.20
76293;DHT22;67256;51.154;4.164;2023-08-01T11:31:41;22.00;58.50
76293;DHT22;67256;51.154;4.164;2023-08-01T11:34:07;21.90;59.00
76293;DHT22;67256;51.154;4.164;2023-08-01T11:36:36;21.70;60.40
76293;DHT22;67256;51.154;4.164;2023-08-01T11:39:04;21.60;59.40
76293;DHT22;67256;51.154;4.164;2023-08-01T11:41:30;21.50;60.10
76293;DHT22;67256;51.154;4.164;2023-08-01T11:44:01;21.50;59.60
76293;DHT22;67256;51.154;4.164;2023-08-01T11:46:31;21.70;57.10
76293;DHT22;67256;51.154;4.164;2023-08-01T11:48:58;21.70;58.30
76293;DHT22;67256;51.154;4.164;2023-08-01T11:51:25;21.90;57.90
76293;DHT22;67256;51.154;4.164;2023-08-01T11:54:04;21.90;57.70
76293;DHT22;67256;51.154;4.164;2023-08-01T11:56:30;22.00;56.90
76293;DHT22;67256;51.154;4.164;2023-08-01T11:58:56;21.80;58.20
76293;DHT22;67256;51.154;4.164;2023-08-01T12:01:22;21.80;59.40
76293;DHT22;67256;51.154;4.164;2023-08-01T12:03:53;21.70;58.40
76293;DHT22;67256;51.154;4.164;2023-08-01T12:06:21;21.70;58.60
76293;DHT22;67256;51.154;4.164;2023-08-01T12:08:48;21.70;60.20
76293;DHT22;67256;51.154;4.164;2023-08-01T12:11:27;21.80;59.00
76293;DHT22;67256;51.154;4.164;2023-08-01T12:16:36;22.00;58.50
76293;DHT22;67256;51.154;4.164;2023-08-01T12:19:02;22.00;56.20
76293;DHT22;67256;51.154;4.164;2023-08-01T12:21:28;22.00;57.40
76293;DHT22;67256;51.154;4.164;2023-08-01T12:23:54;22.00;56.40
76293;DHT22;67256;51.154;4.164;2023-08-01T12:26:20;22.00;57.30
76293;DHT22;67256;51.154;4.164;2023-08-01T12:28:46;22.10;54.90
76293;DHT22;67256;51.154;4.164;2023-08-01T12:31:16;22.00;56.50
76293;DHT22;67256;51.154;4.164;2023-08-01T12:33:42;21.90;55.10
76293;DHT22;67256;51.154;4.164;2023-08-01T12:36:08;22.10;55.90
76293;DHT22;67256;51.154;4.164;2023-08-01T12:38:34;22.10;54.90
76293;DHT22;67256;51.154;4.164;2023-08-01T12:41:01;22.10;53.90
76293;DHT22;67256;51.154;4.164;2023-08-01T12:43:27;22.00;54.20
76293;DHT22;67256;51.154;4.164;2023-08-01T12:45:52;22.00;55.10
76293;DHT22;67256;51.154;4.164;2023-08-01T12:48:18;21.90;54.10
76293;DHT22;67256;51.154;4.164;2023-08-01T12:50:45;21.90;54.80
76293;DHT22;67256;51.154;4.164;2023-08-01T12:53:12;21.80;55.10
76293;DHT22;67256;51.154;4.164;2023-08-01T12:55:37;21.80;55.90
76293;DHT22;67256;51.154;4.164;2023-08-01T12:58:03;22.00;55.60
76293;DHT22;67256;51.154;4.164;2023-08-01T13:00:31;22.10;55.00
76293;DHT22;67256;51.154;4.164;2023-08-01T13:02:57;22.10;54.40
76293;DHT22;67256;51.154;4.164;2023-08-01T13:05:24;22.00;54.90
76293;DHT22;67256;51.154;4.164;2023-08-01T13:07:49;22.20;54.80
76293;DHT22;67256;51.154;4.164;2023-08-01T13:10:15;22.30;54.30
76293;DHT22;67256;51.154;4.164;2023-08-01T13:12:41;22.30;54.50
76293;DHT22;67256;51.154;4.164;2023-08-01T13:15:07;22.40;53.80
76293;DHT22;67256;51.154;4.164;2023-08-01T13:17:34;22.50;53.70
76293;DHT22;67256;51.154;4.164;2023-08-01T13:19:59;22.50;52.40
76293;DHT22;67256;51.154;4.164;2023-08-01T13:22:25;22.50;53.10
76293;DHT22;67256;51.154;4.164;2023-08-01T13:24:51;22.60;53.30
76293;DHT22;67256;51.154;4.164;2023-08-01T13:27:16;22.50;53.60
76293;DHT22;67256;51.154;4.164;2023-08-01T13:29:42;22.40;53.40
76293;DHT22;67256;51.154;4.164;2023-08-01T13:32:08;22.40;53.40
76293;DHT22;67256;51.154;4.164;2023-08-01T13:34:33;22.30;54.40
76293;DHT22;67256;51.154;4.164;2023-08-01T13:36:59;22.40;54.00
76293;DHT22;67256;51.154;4.164;2023-08-01T13:39:25;22.50;53.70
76293;DHT22;67256;51.154;4.164;2023-08-01T13:41:50;22.60;53.90
76293;DHT22;67256;51.154;4.164;2023-08-01T13:44:16;22.80;53.30
76293;DHT22;67256;51.154;4.164;2023-08-01T13:46:42;22.90;51.70
76293;DHT22;67256;51.154;4.164;2023-08-01T13:49:08;22.60;52.20
76293;DHT22;67256;51.154;4.164;2023-08-01T13:51:34;22.30;53.80
76293;DHT22;67256;51.154;4.164;2023-08-01T13:53:59;22.30;54.80
76293;DHT22;67256;51.154;4.164;2023-08-01T13:56:26;22.30;54.40
76293;DHT22;67256;51.154;4.164;2023-08-01T13:58:52;22.20;54.60
76293;DHT22;67256;51.154;4.164;2023-08-01T14:01:18;22.10;55.40
76293;DHT22;67256;51.154;4.164;2023-08-01T14:03:44;22.00;56.40
76293;DHT22;67256;51.154;4.164;2023-08-01T14:06:12;21.90;56.40
76293;DHT22;67256;51.154;4.164;2023-08-01T14:08:39;21.70;56.60
76293;DHT22;67256;51.154;4.164;2023-08-01T14:11:07;21.80;57.20
76293;DHT22;67256;51.154;4.164;2023-08-01T14:13:33;21.80;57.00
76293;DHT22;67256;51.154;4.164;2023-08-01T14:16:00;21.80;57.40
76293;DHT22;67256;51.154;4.164;2023-08-01T14:18:27;21.90;57.40
76293;DHT22;67256;51.154;4.164;2023-08-01T14:20:53;21.90;58.50
76293;DHT22;67256;51.154;4.164;2023-08-01T14:23:19;21.90;58.70
76293;DHT22;67256;51.154;4.164;2023-08-01T14:25:45;21.90;58.80
76293;DHT22;67256;51.154;4.164;2023-08-01T14:28:11;21.80;59.30
76293;DHT22;67256;51.154;4.164;2023-08-01T14:30:37;21.80;60.20
76293;DHT22;67256;51.154;4.164;2023-08-01T14:33:05;21.80;59.70
76293;DHT22;67256;51.154;4.164;2023-08-01T14:35:32;21.60;59.30
76293;DHT22;67256;51.154;4.164;2023-08-01T14:37:58;21.50;59.70
76293;DHT22;67256;51.154;4.164;2023-08-01T14:40:25;21.50;59.70
76293;DHT22;67256;51.154;4.164;2023-08-01T14:42:51;21.50;59.80
76293;DHT22;67256;51.154;4.164;2023-08-01T14:45:17;21.60;59.50
76293;DHT22;67256;51.154;4.164;2023-08-01T14:47:43;21.60;59.80
76293;DHT22;67256;51.154;4.164;2023-08-01T14:50:10;21.80;59.40
76293;DHT22;67256;51.154;4.164;2023-08-01T14:52:37;22.00;59.30
76293;DHT22;67256;51.154;4.164;2023-08-01T14:55:03;22.00;59.30
76293;DHT22;67256;51.154;4.164;2023-08-01T14:57:29;22.10;58.40
76293;DHT22;67256;51.154;4.164;2023-08-01T14:59:55;21.90;58.60
76293;DHT22;67256;51.154;4.164;2023-08-01T15:02:21;22.00;58.10
76293;DHT22;67256;51.154;4.164;2023-08-01T15:04:51;22.10;58.30
76293;DHT22;67256;51.154;4.164;2023-08-01T15:07:18;22.30;58.60
76293;DHT22;67256;51.154;4.164;2023-08-01T15:09:44;22.30;58.20
76293;DHT22;67256;51.154;4.164;2023-08-01T15:12:11;22.50;57.60
76293;DHT22;67256;51.154;4.164;2023-08-01T15:14:37;22.60;57.80
76293;DHT22;67256;51.154;4.164;2023-08-01T15:17:04;22.60;56.30
76293;DHT22;67256;51.154;4.164;2023-08-01T15:19:31;22.50;56.80
76293;DHT22;67256;51.154;4.164;2023-08-01T15:21:57;22.50;56.00
76293;DHT22;67256;51.154;4.164;2023-08-01T15:24:23;22.60;56.60
76293;DHT22;67256;51.154;4.164;2023-08-01T15:26:48;22.50;56.30
76293;DHT22;67256;51.154;4.164;2023-08-01T15:29:15;22.40;56.00
76293;DHT22;67256;51.154;4.164;2023-08-01T15:31:40;22.40;55.00